sensor_id;sensor_type;location;lat;lon;timestamp;P1;durP1;ratioP1;P2;durP2;ratioP2
55292;SDS011;41157;53.560;10.098;2022-10-16T00:01:12;9.50;;;4.20;;
55292;SDS011;41157;53.560;10.098;2022-10-16T00:03:39;4.57;;;3.87;;
55292;SDS011;41157;53.560;10.098;2022-10-16T00:06:06;4.83;;;3.67;;
55292;SDS011;41157;53.560;10.098;2022-10-16T00:08:32;5.67;;;4.00;;
55292;SDS011;41157;53.560;10.098;2022-10-16T00:11:02;4.90;;;3.63;;
55292;SDS011;41157;53.560;10.098;2022-10-16T00:13:29;5.43;;;4.27;;
55292;SDS011;41157;53.560;10.098;2022-10-16T00:15:56;4.80;;;4.10;;
55292;SDS011;41157;53.560;10.098;2022-10-16T00:18:22;8.97;;;3.97;;
55292;SDS011;41157;53.560;10.098;2022-10-16T00:20:48;4.73;;;4.00;;
55292;SDS011;41157;53.560;10.098;2022-10-16T00:23:14;8.50;;;4.37;;
55292;SDS011;41157;53.560;10.098;2022-10-16T00:25:40;10.53;;;4.60;;
55292;SDS011;41157;53.560;10.098;2022-10-16T00:28:06;6.90;;;4.37;;
55292;SDS011;41157;53.560;10.098;2022-10-16T00:30:32;5.43;;;4.70;;
55292;SDS011;41157;53.560;10.098;2022-10-16T00:32:59;13.17;;;5.03;;
55292;SDS011;41157;53.560;10.098;2022-10-16T00:35:24;5.50;;;5.00;;
55292;SDS011;41157;53.560;10.098;2022-10-16T00:37:50;5.40;;;4.90;;
55292;SDS011;41157;53.560;10.098;2022-10-16T00:40:16;5.60;;;5.10;;
55292;SDS011;41157;53.560;10.098;2022-10-16T00:42:42;6.03;;;4.77;;
55292;SDS011;41157;53.560;10.098;2022-10-16T00:45:09;7.40;;;5.07;;
55292;SDS011;41157;53.560;10.098;2022-10-16T00:47:36;5.37;;;4.83;;
55292;SDS011;41157;53.560;10.098;2022-10-16T00:50:19;10.37;;;5.17;;
55292;SDS011;41157;53.560;10.098;2022-10-16T00:52:48;5.93;;;5.17;;
55292;SDS011;41157;53.560;10.098;2022-10-16T00:55:15;10.17;;;5.67;;
55292;SDS011;41157;53.560;10.098;2022-10-16T00:57:41;9.57;;;5.87;;
55292;SDS011;41157;53.560;10.098;2022-10-16T01:00:08;10.93;;;5.67;;
55292;SDS011;41157;53.560;10.098;2022-10-16T01:02:35;5.87;;;5.00;;
55292;SDS011;41157;53.560;10.098;2022-10-16T01:05:01;7.77;;;5.03;;
55292;SDS011;41157;53.560;10.098;2022-10-16T01:15:08;5.27;;;4.77;;
55292;SDS011;41157;53.560;10.098;2022-10-16T01:17:45;6.13;;;5.03;;
55292;SDS011;41157;53.560;10.098;2022-10-16T01:25:39;6.30;;;5.47;;
55292;SDS011;41157;53.560;10.098;2022-10-16T01:28:08;8.90;;;5.73;;
55292;SDS011;41157;53.560;10.098;2022-10-16T01:30:35;9.07;;;5.30;;
55292;SDS011;41157;53.560;10.098;2022-10-16T01:38:01;12.90;;;5.30;;
55292;SDS011;41157;53.560;10.098;2022-10-16T01:40:29;6.07;;;5.17;;
55292;SDS011;41157;53.560;10.098;2022-10-16T01:43:02;8.10;;;4.67;;
55292;SDS011;41157;53.560;10.098;2022-10-16T01:45:29;6.03;;;4.40;;
55292;SDS011;41157;53.560;10.098;2022-10-16T01:47:55;6.57;;;4.00;;
55292;SDS011;41157;53.560;10.098;2022-10-16T01:50:22;6.70;;;4.03;;
55292;SDS011;41157;53.560;10.098;2022-10-16T01:52:49;5.73;;;3.67;;
55292;SDS011;41157;53.560;10.098;2022-10-16T01:55:22;7.60;;;4.50;;
55292;SDS011;41157;53.560;10.098;2022-10-16T01:57:49;7.37;;;4.07;;
55292;SDS011;41157;53.560;10.098;2022-10-16T02:00:16;6.57;;;3.77;;
55292;SDS011;41157;53.560;10.098;2022-10-16T02:02:44;5.47;;;4.03;;
55292;SDS011;41157;53.560;10.098;2022-10-16T02:05:13;5.20;;;3.37;;
55292;SDS011;41157;53.560;10.098;2022-10-16T02:07:41;10.57;;;3.63;;
55292;SDS011;41157;53.560;10.098;2022-10-16T02:10:07;5.27;;;2.77;;
55292;SDS011;41157;53.560;10.098;2022-10-16T02:12:33;5.70;;;3.07;;
55292;SDS011;41157;53.560;10.098;2022-10-16T02:15:00;3.60;;;3.10;;
55292;SDS011;41157;53.560;10.098;2022-10-16T02:17:26;5.10;;;2.90;;
55292;SDS011;41157;53.560;10.098;2022-10-16T02:19:54;5.13;;;3.30;;
55292;SDS011;41157;53.560;10.098;2022-10-16T02:22:27;5.27;;;2.77;;
55292;SDS011;41157;53.560;10.098;2022-10-16T02:24:58;5.83;;;3.27;;
55292;SDS011;41157;53.560;10.098;2022-10-16T02:29:55;5.57;;;3.30;;
55292;SDS011;41157;53.560;10.098;2022-10-16T02:32:24;6.10;;;3.60;;
55292;SDS011;41157;53.560;10.098;2022-10-16T02:34:52;7.10;;;3.40;;
55292;SDS011;41157;53.560;10.098;2022-10-16T02:37:19;3.17;;;2.87;;
55292;SDS011;41157;53.560;10.098;2022-10-16T02:39:45;4.23;;;3.20;;
55292;SDS011;41157;53.560;10.098;2022-10-16T02:42:12;5.93;;;3.37;;
55292;SDS011;41157;53.560;10.098;2022-10-16T02:44:38;6.10;;;3.20;;
55292;SDS011;41157;53.560;10.098;2022-10-16T02:47:04;3.70;;;2.90;;
55292;SDS011;41157;53.560;10.098;2022-10-16T02:49:30;5.70;;;3.00;;
55292;SDS011;41157;53.560;10.098;2022-10-16T02:51:56;5.80;;;3.00;;
55292;SDS011;41157;53.560;10.098;2022-10-16T02:54:22;4.37;;;2.90;;
55292;SDS011;41157;53.560;10.098;2022-10-16T02:56:48;4.37;;;2.77;;
55292;SDS011;41157;53.560;10.098;2022-10-16T02:59:14;3.93;;;2.53;;
55292;SDS011;41157;53.560;10.098;2022-10-16T03:01:40;9.77;;;3.10;;
55292;SDS011;41157;53.560;10.098;2022-10-16T03:04:06;3.03;;;2.60;;
55292;SDS011;41157;53.560;10.098;2022-10-16T03:06:32;6.93;;;2.50;;
55292;SDS011;41157;53.560;10.098;2022-10-16T03:08:58;4.33;;;2.53;;
55292;SDS011;41157;53.560;10.098;2022-10-16T03:11:24;3.40;;;2.57;;
55292;SDS011;41157;53.560;10.098;2022-10-16T03:13:51;8.60;;;2.73;;
55292;SDS011;41157;53.560;10.098;2022-10-16T03:16:17;4.80;;;2.47;;
55292;SDS011;41157;53.560;10.098;2022-10-16T03:18:43;2.50;;;2.23;;
55292;SDS011;41157;53.560;10.098;2022-10-16T03:21:09;6.43;;;2.53;;
55292;SDS011;41157;53.560;10.098;2022-10-16T03:23:35;4.93;;;2.37;;
55292;SDS011;41157;53.560;10.098;2022-10-16T03:26:01;3.73;;;2.20;;
55292;SDS011;41157;53.560;10.098;2022-10-16T03:28:27;4.20;;;2.37;;
55292;SDS011;41157;53.560;10.098;2022-10-16T03:30:52;2.97;;;2.13;;
55292;SDS011;41157;53.560;10.098;2022-10-16T03:33:19;4.20;;;2.30;;
55292;SDS011;41157;53.560;10.098;2022-10-16T03:35:50;3.13;;;2.10;;
55292;SDS011;41157;53.560;10.098;2022-10-16T03:38:16;2.93;;;2.20;;
55292;SDS011;41157;53.560;10.098;2022-10-16T03:40:42;4.27;;;2.17;;
55292;SDS011;41157;53.560;10.098;2022-10-16T03:43:08;5.50;;;2.50;;
55292;SDS011;41157;53.560;10.098;2022-10-16T03:45:34;7.43;;;2.40;;
55292;SDS011;41157;53.560;10.098;2022-10-16T03:48:00;6.53;;;2.30;;
55292;SDS011;41157;53.560;10.098;2022-10-16T03:50:28;5.67;;;2.27;;
55292;SDS011;41157;53.560;10.098;2022-10-16T03:52:54;4.43;;;2.30;;
55292;SDS011;41157;53.560;10.098;2022-10-16T03:55:20;5.30;;;2.07;;
55292;SDS011;41157;53.560;10.098;2022-10-16T03:57:46;6.57;;;2.50;;
55292;SDS011;41157;53.560;10.098;2022-10-16T04:00:12;7.33;;;2.33;;
55292;SDS011;41157;53.560;10.098;2022-10-16T04:02:38;12.23;;;2.67;;
55292;SDS011;41157;53.560;10.098;2022-10-16T04:05:05;5.53;;;1.90;;
55292;SDS011;41157;53.560;10.098;2022-10-16T04:07:31;5.07;;;2.20;;
55292;SDS011;41157;53.560;10.098;2022-10-16T04:09:57;4.30;;;2.00;;
55292;SDS011;41157;53.560;10.098;2022-10-16T04:12:24;4.63;;;1.90;;
55292;SDS011;41157;53.560;10.098;2022-10-16T04:14:50;3.70;;;2.10;;
55292;SDS011;41157;53.560;10.098;2022-10-16T04:17:16;4.10;;;2.10;;
55292;SDS011;41157;53.560;10.098;2022-10-16T04:19:42;4.10;;;1.90;;
55292;SDS011;41157;53.560;10.098;2022-10-16T04:22:08;4.17;;;2.27;;
55292;SDS011;41157;53.560;10.098;2022-10-16T04:24:34;3.93;;;2.30;;
55292;SDS011;41157;53.560;10.098;2022-10-16T04:27:00;3.40;;;1.90;;
55292;SDS011;41157;53.560;10.098;2022-10-16T04:29:26;7.57;;;2.07;;
55292;SDS011;41157;53.560;10.098;2022-10-16T04:31:52;6.20;;;2.10;;
55292;SDS011;41157;53.560;10.098;2022-10-16T04:34:18;4.50;;;1.90;;
55292;SDS011;41157;53.560;10.098;2022-10-16T04:36:46;5.13;;;1.90;;
55292;SDS011;41157;53.560;10.098;2022-10-16T04:39:12;6.73;;;2.00;;
55292;SDS011;41157;53.560;10.098;2022-10-16T04:41:38;7.73;;;2.30;;
55292;SDS011;41157;53.560;10.098;2022-10-16T04:44:04;5.27;;;2.63;;
55292;SDS011;41157;53.560;10.098;2022-10-16T04:46:30;3.23;;;1.87;;
55292;SDS011;41157;53.560;10.098;2022-10-16T04:48:56;10.10;;;2.30;;
55292;SDS011;41157;53.560;10.098;2022-10-16T04:51:22;2.03;;;1.83;;
55292;SDS011;41157;53.560;10.098;2022-10-16T04:53:48;2.97;;;2.00;;
55292;SDS011;41157;53.560;10.098;2022-10-16T04:56:13;7.13;;;2.00;;
55292;SDS011;41157;53.560;10.098;2022-10-16T04:58:40;5.77;;;1.90;;
55292;SDS011;41157;53.560;10.098;2022-10-16T05:01:06;5.40;;;2.07;;
55292;SDS011;41157;53.560;10.098;2022-10-16T05:03:32;5.30;;;2.13;;
55292;SDS011;41157;53.560;10.098;2022-10-16T05:05:58;5.23;;;2.10;;
55292;SDS011;41157;53.560;10.098;2022-10-16T05:08:24;3.47;;;2.10;;
55292;SDS011;41157;53.560;10.098;2022-10-16T05:10:50;6.03;;;2.30;;
55292;SDS011;41157;53.560;10.098;2022-10-16T05:13:16;5.10;;;2.13;;
55292;SDS011;41157;53.560;10.098;2022-10-16T05:15:46;3.47;;;2.43;;
55292;SDS011;41157;53.560;10.098;2022-10-16T05:18:12;7.63;;;2.83;;
55292;SDS011;41157;53.560;10.098;2022-10-16T05:20:38;5.60;;;2.50;;
55292;SDS011;41157;53.560;10.098;2022-10-16T05:23:03;4.40;;;2.60;;
55292;SDS011;41157;53.560;10.098;2022-10-16T05:25:29;5.77;;;2.97;;
55292;SDS011;41157;53.560;10.098;2022-10-16T05:27:55;5.17;;;2.50;;
55292;SDS011;41157;53.560;10.098;2022-10-16T05:30:21;7.33;;;2.90;;
55292;SDS011;41157;53.560;10.098;2022-10-16T05:32:48;6.00;;;2.33;;
55292;SDS011;41157;53.560;10.098;2022-10-16T05:35:14;4.57;;;2.13;;
55292;SDS011;41157;53.560;10.098;2022-10-16T05:37:40;3.60;;;2.50;;
55292;SDS011;41157;53.560;10.098;2022-10-16T05:40:07;4.40;;;2.70;;
55292;SDS011;41157;53.560;10.098;2022-10-16T05:42:33;6.30;;;2.57;;
55292;SDS011;41157;53.560;10.098;2022-10-16T05:44:59;6.10;;;2.73;;
55292;SDS011;41157;53.560;10.098;2022-10-16T05:47:25;7.50;;;2.50;;
55292;SDS011;41157;53.560;10.098;2022-10-16T05:49:51;6.40;;;2.50;;
55292;SDS011;41157;53.560;10.098;2022-10-16T05:52:18;3.93;;;2.43;;
55292;SDS011;41157;53.560;10.098;2022-10-16T05:54:44;3.80;;;2.27;;
55292;SDS011;41157;53.560;10.098;2022-10-16T05:57:10;5.73;;;2.10;;
55292;SDS011;41157;53.560;10.098;2022-10-16T05:59:36;8.23;;;2.47;;
55292;SDS011;41157;53.560;10.098;2022-10-16T06:02:02;5.47;;;2.40;;
55292;SDS011;41157;53.560;10.098;2022-10-16T06:04:28;3.00;;;2.07;;
55292;SDS011;41157;53.560;10.098;2022-10-16T06:06:54;6.07;;;2.50;;
55292;SDS011;41157;53.560;10.098;2022-10-16T06:09:20;7.13;;;2.27;;
55292;SDS011;41157;53.560;10.098;2022-10-16T06:11:46;4.13;;;2.17;;
55292;SDS011;41157;53.560;10.098;2022-10-16T06:14:12;6.63;;;2.23;;
55292;SDS011;41157;53.560;10.098;2022-10-16T06:16:38;3.53;;;2.30;;
55292;SDS011;41157;53.560;10.098;2022-10-16T06:19:04;5.23;;;2.87;;
55292;SDS011;41157;53.560;10.098;2022-10-16T06:21:34;4.87;;;2.33;;
55292;SDS011;41157;53.560;10.098;2022-10-16T06:24:00;7.87;;;2.40;;
55292;SDS011;41157;53.560;10.098;2022-10-16T06:26:27;6.40;;;2.40;;
55292;SDS011;41157;53.560;10.098;2022-10-16T06:28:54;5.30;;;2.13;;
55292;SDS011;41157;53.560;10.098;2022-10-16T06:31:20;4.80;;;2.30;;
55292;SDS011;41157;53.560;10.098;2022-10-16T06:33:49;3.93;;;2.63;;
55292;SDS011;41157;53.560;10.098;2022-10-16T06:36:16;6.00;;;2.00;;
55292;SDS011;41157;53.560;10.098;2022-10-16T06:38:43;4.00;;;2.27;;
55292;SDS011;41157;53.560;10.098;2022-10-16T06:41:10;6.93;;;2.10;;
55292;SDS011;41157;53.560;10.098;2022-10-16T06:43:37;4.63;;;2.80;;
55292;SDS011;41157;53.560;10.098;2022-10-16T06:46:04;3.07;;;2.60;;
55292;SDS011;41157;53.560;10.098;2022-10-16T06:48:30;7.10;;;2.70;;
55292;SDS011;41157;53.560;10.098;2022-10-16T06:50:57;8.13;;;2.57;;
55292;SDS011;41157;53.560;10.098;2022-10-16T06:53:23;4.50;;;2.57;;
55292;SDS011;41157;53.560;10.098;2022-10-16T06:55:49;8.17;;;2.80;;
55292;SDS011;41157;53.560;10.098;2022-10-16T06:58:15;5.90;;;2.47;;
55292;SDS011;41157;53.560;10.098;2022-10-16T07:00:41;7.87;;;3.10;;
55292;SDS011;41157;53.560;10.098;2022-10-16T07:03:07;7.00;;;3.10;;
55292;SDS011;41157;53.560;10.098;2022-10-16T07:05:40;7.63;;;2.63;;
55292;SDS011;41157;53.560;10.098;2022-10-16T07:08:06;7.00;;;2.93;;
55292;SDS011;41157;53.560;10.098;2022-10-16T07:10:32;10.00;;;3.30;;
55292;SDS011;41157;53.560;10.098;2022-10-16T07:12:58;7.77;;;3.10;;
55292;SDS011;41157;53.560;10.098;2022-10-16T07:15:24;4.77;;;2.73;;
55292;SDS011;41157;53.560;10.098;2022-10-16T07:17:51;5.77;;;2.80;;
55292;SDS011;41157;53.560;10.098;2022-10-16T07:20:17;3.47;;;2.57;;
55292;SDS011;41157;53.560;10.098;2022-10-16T07:22:43;5.97;;;3.20;;
55292;SDS011;41157;53.560;10.098;2022-10-16T07:25:09;6.07;;;3.13;;
55292;SDS011;41157;53.560;10.098;2022-10-16T07:27:36;5.13;;;3.10;;
55292;SDS011;41157;53.560;10.098;2022-10-16T07:30:02;5.57;;;3.13;;
55292;SDS011;41157;53.560;10.098;2022-10-16T07:32:28;7.70;;;3.40;;
55292;SDS011;41157;53.560;10.098;2022-10-16T07:34:54;3.60;;;2.70;;
55292;SDS011;41157;53.560;10.098;2022-10-16T07:37:20;9.13;;;2.80;;
55292;SDS011;41157;53.560;10.098;2022-10-16T07:39:46;6.40;;;2.67;;
55292;SDS011;41157;53.560;10.098;2022-10-16T07:42:12;4.40;;;2.80;;
55292;SDS011;41157;53.560;10.098;2022-10-16T07:44:38;6.73;;;2.50;;
55292;SDS011;41157;53.560;10.098;2022-10-16T07:47:05;7.23;;;2.73;;
55292;SDS011;41157;53.560;10.098;2022-10-16T07:49:31;3.33;;;2.83;;
55292;SDS011;41157;53.560;10.098;2022-10-16T07:51:56;5.33;;;2.80;;
55292;SDS011;41157;53.560;10.098;2022-10-16T07:54:22;2.80;;;2.47;;
55292;SDS011;41157;53.560;10.098;2022-10-16T07:56:48;5.10;;;2.47;;
55292;SDS011;41157;53.560;10.098;2022-10-16T07:59:14;5.03;;;2.70;;
55292;SDS011;41157;53.560;10.098;2022-10-16T08:01:41;3.80;;;2.20;;
55292;SDS011;41157;53.560;10.098;2022-10-16T08:04:07;3.45;;;2.28;;
55292;SDS011;41157;53.560;10.098;2022-10-16T08:06:37;2.75;;;2.33;;
55292;SDS011;41157;53.560;10.098;2022-10-16T08:09:03;4.43;;;2.22;;
55292;SDS011;41157;53.560;10.098;2022-10-16T08:11:29;2.88;;;2.25;;
55292;SDS011;41157;53.560;10.098;2022-10-16T08:13:55;3.08;;;2.47;;
55292;SDS011;41157;53.560;10.098;2022-10-16T08:16:21;5.32;;;2.30;;
55292;SDS011;41157;53.560;10.098;2022-10-16T08:18:47;2.85;;;2.13;;
55292;SDS011;41157;53.560;10.098;2022-10-16T08:21:14;7.68;;;2.60;;
55292;SDS011;41157;53.560;10.098;2022-10-16T08:23:40;7.40;;;2.33;;
55292;SDS011;41157;53.560;10.098;2022-10-16T08:26:07;7.72;;;2.53;;
55292;SDS011;41157;53.560;10.098;2022-10-16T08:28:33;3.03;;;2.22;;
55292;SDS011;41157;53.560;10.098;2022-10-16T08:33:32;7.43;;;2.22;;
55292;SDS011;41157;53.560;10.098;2022-10-16T08:35:59;5.72;;;2.13;;
55292;SDS011;41157;53.560;10.098;2022-10-16T08:38:26;4.45;;;1.80;;
55292;SDS011;41157;53.560;10.098;2022-10-16T08:40:52;2.83;;;1.90;;
55292;SDS011;41157;53.560;10.098;2022-10-16T08:48:43;2.95;;;1.67;;
55292;SDS011;41157;53.560;10.098;2022-10-16T08:51:12;4.65;;;1.63;;
55292;SDS011;41157;53.560;10.098;2022-10-16T08:53:59;2.08;;;1.70;;
55292;SDS011;41157;53.560;10.098;2022-10-16T08:56:27;6.03;;;1.85;;
55292;SDS011;41157;53.560;10.098;2022-10-16T08:58:53;2.05;;;1.63;;
55292;SDS011;41157;53.560;10.098;2022-10-16T09:01:20;5.95;;;1.80;;
55292;SDS011;41157;53.560;10.098;2022-10-16T09:06:20;2.00;;;1.42;;
55292;SDS011;41157;53.560;10.098;2022-10-16T09:13:57;1.65;;;1.50;;
55292;SDS011;41157;53.560;10.098;2022-10-16T09:18:56;4.65;;;1.80;;
55292;SDS011;41157;53.560;10.098;2022-10-16T09:21:26;1.92;;;1.48;;
55292;SDS011;41157;53.560;10.098;2022-10-16T09:23:52;3.40;;;1.63;;
55292;SDS011;41157;53.560;10.098;2022-10-16T09:26:19;1.60;;;1.35;;
55292;SDS011;41157;53.560;10.098;2022-10-16T09:28:46;1.60;;;1.30;;
55292;SDS011;41157;53.560;10.098;2022-10-16T09:31:17;2.63;;;1.40;;
55292;SDS011;41157;53.560;10.098;2022-10-16T09:33:43;1.80;;;1.50;;
55292;SDS011;41157;53.560;10.098;2022-10-16T09:36:10;5.50;;;1.50;;
55292;SDS011;41157;53.560;10.098;2022-10-16T09:38:37;4.47;;;1.70;;
55292;SDS011;41157;53.560;10.098;2022-10-16T09:41:17;2.97;;;1.30;;
55292;SDS011;41157;53.560;10.098;2022-10-16T09:43:59;2.75;;;1.35;;
55292;SDS011;41157;53.560;10.098;2022-10-16T09:46:27;1.45;;;1.20;;
55292;SDS011;41157;53.560;10.098;2022-10-16T09:49:01;1.98;;;1.40;;
55292;SDS011;41157;53.560;10.098;2022-10-16T09:51:29;2.83;;;1.52;;
55292;SDS011;41157;53.560;10.098;2022-10-16T09:54:00;3.63;;;1.70;;
55292;SDS011;41157;53.560;10.098;2022-10-16T09:56:30;6.28;;;1.80;;
55292;SDS011;41157;53.560;10.098;2022-10-16T09:59:13;1.25;;;1.15;;
55292;SDS011;41157;53.560;10.098;2022-10-16T10:01:44;2.90;;;1.52;;
55292;SDS011;41157;53.560;10.098;2022-10-16T10:04:11;2.53;;;1.50;;
55292;SDS011;41157;53.560;10.098;2022-10-16T10:06:40;4.28;;;1.73;;
55292;SDS011;41157;53.560;10.098;2022-10-16T10:09:26;3.15;;;1.52;;
55292;SDS011;41157;53.560;10.098;2022-10-16T10:11:53;3.60;;;1.70;;
55292;SDS011;41157;53.560;10.098;2022-10-16T10:16:45;4.07;;;1.50;;
55292;SDS011;41157;53.560;10.098;2022-10-16T10:19:18;2.83;;;1.48;;
55292;SDS011;41157;53.560;10.098;2022-10-16T10:21:45;7.53;;;1.58;;
55292;SDS011;41157;53.560;10.098;2022-10-16T10:24:12;2.60;;;1.52;;
55292;SDS011;41157;53.560;10.098;2022-10-16T10:26:38;4.95;;;1.85;;
55292;SDS011;41157;53.560;10.098;2022-10-16T10:32:12;2.67;;;1.80;;
55292;SDS011;41157;53.560;10.098;2022-10-16T10:34:42;2.40;;;1.60;;
55292;SDS011;41157;53.560;10.098;2022-10-16T10:42:43;2.38;;;1.50;;
55292;SDS011;41157;53.560;10.098;2022-10-16T10:50:30;5.10;;;1.70;;
55292;SDS011;41157;53.560;10.098;2022-10-16T10:53:05;6.80;;;1.67;;
55292;SDS011;41157;53.560;10.098;2022-10-16T10:58:15;4.05;;;1.70;;
55292;SDS011;41157;53.560;10.098;2022-10-16T11:03:27;1.65;;;1.20;;
55292;SDS011;41157;53.560;10.098;2022-10-16T11:06:08;2.63;;;1.38;;
55292;SDS011;41157;53.560;10.098;2022-10-16T11:08:46;2.13;;;1.40;;
55292;SDS011;41157;53.560;10.098;2022-10-16T11:11:15;3.65;;;1.23;;
55292;SDS011;41157;53.560;10.098;2022-10-16T11:13:55;3.38;;;1.30;;
55292;SDS011;41157;53.560;10.098;2022-10-16T11:16:26;2.30;;;1.35;;
55292;SDS011;41157;53.560;10.098;2022-10-16T11:21:19;3.03;;;1.50;;
55292;SDS011;41157;53.560;10.098;2022-10-16T11:24:04;2.00;;;1.42;;
55292;SDS011;41157;53.560;10.098;2022-10-16T11:26:35;4.82;;;1.40;;
55292;SDS011;41157;53.560;10.098;2022-10-16T11:29:05;7.45;;;1.75;;
55292;SDS011;41157;53.560;10.098;2022-10-16T11:31:40;2.72;;;1.48;;
55292;SDS011;41157;53.560;10.098;2022-10-16T11:34:12;2.25;;;1.30;;
55292;SDS011;41157;53.560;10.098;2022-10-16T11:47:04;1.73;;;1.17;;
55292;SDS011;41157;53.560;10.098;2022-10-16T11:49:32;3.88;;;1.48;;
55292;SDS011;41157;53.560;10.098;2022-10-16T11:52:02;4.38;;;1.58;;
55292;SDS011;41157;53.560;10.098;2022-10-16T11:54:37;2.90;;;1.55;;
55292;SDS011;41157;53.560;10.098;2022-10-16T11:57:09;3.00;;;1.23;;
55292;SDS011;41157;53.560;10.098;2022-10-16T12:04:53;3.00;;;1.30;;
55292;SDS011;41157;53.560;10.098;2022-10-16T12:07:26;4.63;;;1.42;;
55292;SDS011;41157;53.560;10.098;2022-10-16T12:09:53;5.70;;;1.38;;
55292;SDS011;41157;53.560;10.098;2022-10-16T12:12:25;3.53;;;1.63;;
55292;SDS011;41157;53.560;10.098;2022-10-16T12:15:18;4.20;;;1.42;;
55292;SDS011;41157;53.560;10.098;2022-10-16T12:17:39;3.42;;;1.33;;
55292;SDS011;41157;53.560;10.098;2022-10-16T12:22:40;5.30;;;1.48;;
55292;SDS011;41157;53.560;10.098;2022-10-16T12:28:00;3.40;;;1.20;;
55292;SDS011;41157;53.560;10.098;2022-10-16T12:30:27;4.10;;;1.20;;
55292;SDS011;41157;53.560;10.098;2022-10-16T12:32:54;5.35;;;1.55;;
55292;SDS011;41157;53.560;10.098;2022-10-16T12:35:25;7.93;;;1.48;;
55292;SDS011;41157;53.560;10.098;2022-10-16T12:37:52;9.73;;;1.80;;
55292;SDS011;41157;53.560;10.098;2022-10-16T12:42:47;6.75;;;2.20;;
55292;SDS011;41157;53.560;10.098;2022-10-16T12:45:27;4.40;;;1.70;;
55292;SDS011;41157;53.560;10.098;2022-10-16T12:47:55;5.10;;;1.63;;
55292;SDS011;41157;53.560;10.098;2022-10-16T12:50:28;3.50;;;1.30;;
55292;SDS011;41157;53.560;10.098;2022-10-16T12:52:56;3.47;;;1.48;;
55292;SDS011;41157;53.560;10.098;2022-10-16T12:55:22;5.82;;;1.70;;
55292;SDS011;41157;53.560;10.098;2022-10-16T13:00:39;4.07;;;1.20;;
55292;SDS011;41157;53.560;10.098;2022-10-16T13:03:23;6.00;;;1.88;;
55292;SDS011;41157;53.560;10.098;2022-10-16T13:08:25;4.68;;;1.30;;
55292;SDS011;41157;53.560;10.098;2022-10-16T13:13:29;4.30;;;1.70;;
55292;SDS011;41157;53.560;10.098;2022-10-16T13:16:17;4.43;;;1.50;;
55292;SDS011;41157;53.560;10.098;2022-10-16T13:18:52;5.63;;;2.30;;
55292;SDS011;41157;53.560;10.098;2022-10-16T13:24:17;7.82;;;2.42;;
55292;SDS011;41157;53.560;10.098;2022-10-16T13:29:14;7.07;;;2.20;;
55292;SDS011;41157;53.560;10.098;2022-10-16T13:31:40;4.13;;;1.40;;
55292;SDS011;41157;53.560;10.098;2022-10-16T13:34:12;5.20;;;1.98;;
55292;SDS011;41157;53.560;10.098;2022-10-16T13:36:44;4.13;;;1.98;;
55292;SDS011;41157;53.560;10.098;2022-10-16T13:39:11;8.40;;;1.77;;
55292;SDS011;41157;53.560;10.098;2022-10-16T13:41:38;3.92;;;2.00;;
55292;SDS011;41157;53.560;10.098;2022-10-16T13:44:04;9.88;;;3.67;;
55292;SDS011;41157;53.560;10.098;2022-10-16T13:46:30;5.97;;;3.50;;
55292;SDS011;41157;53.560;10.098;2022-10-16T13:49:20;4.85;;;2.53;;
55292;SDS011;41157;53.560;10.098;2022-10-16T13:51:54;5.53;;;3.45;;
55292;SDS011;41157;53.560;10.098;2022-10-16T13:54:21;6.75;;;2.47;;
55292;SDS011;41157;53.560;10.098;2022-10-16T13:56:47;8.90;;;2.28;;
55292;SDS011;41157;53.560;10.098;2022-10-16T13:59:26;5.47;;;1.70;;
55292;SDS011;41157;53.560;10.098;2022-10-16T14:01:53;5.05;;;1.60;;
55292;SDS011;41157;53.560;10.098;2022-10-16T14:04:20;6.85;;;1.65;;
55292;SDS011;41157;53.560;10.098;2022-10-16T14:06:48;8.85;;;1.50;;
55292;SDS011;41157;53.560;10.098;2022-10-16T14:09:23;4.53;;;1.40;;
55292;SDS011;41157;53.560;10.098;2022-10-16T14:11:50;4.78;;;2.35;;
55292;SDS011;41157;53.560;10.098;2022-10-16T14:14:18;4.72;;;1.65;;
55292;SDS011;41157;53.560;10.098;2022-10-16T14:16:44;5.05;;;1.50;;
55292;SDS011;41157;53.560;10.098;2022-10-16T14:19:29;3.92;;;1.35;;
55292;SDS011;41157;53.560;10.098;2022-10-16T14:21:56;4.55;;;1.38;;
55292;SDS011;41157;53.560;10.098;2022-10-16T14:24:26;5.65;;;1.55;;
55292;SDS011;41157;53.560;10.098;2022-10-16T14:26:52;5.10;;;1.90;;
55292;SDS011;41157;53.560;10.098;2022-10-16T14:29:21;9.68;;;2.22;;
55292;SDS011;41157;53.560;10.098;2022-10-16T14:31:57;6.85;;;2.10;;
55292;SDS011;41157;53.560;10.098;2022-10-16T14:34:24;4.18;;;1.70;;
55292;SDS011;41157;53.560;10.098;2022-10-16T14:36:52;5.50;;;1.67;;
55292;SDS011;41157;53.560;10.098;2022-10-16T14:39:19;2.20;;;1.30;;
55292;SDS011;41157;53.560;10.098;2022-10-16T14:41:47;6.07;;;1.70;;
55292;SDS011;41157;53.560;10.098;2022-10-16T14:44:14;5.28;;;2.20;;
55292;SDS011;41157;53.560;10.098;2022-10-16T14:46:41;10.40;;;2.20;;
55292;SDS011;41157;53.560;10.098;2022-10-16T14:51:37;6.35;;;2.10;;
55292;SDS011;41157;53.560;10.098;2022-10-16T14:54:03;4.80;;;1.65;;
55292;SDS011;41157;53.560;10.098;2022-10-16T14:56:30;10.38;;;1.85;;
55292;SDS011;41157;53.560;10.098;2022-10-16T14:58:58;6.68;;;1.50;;
55292;SDS011;41157;53.560;10.098;2022-10-16T15:01:24;4.93;;;1.60;;
55292;SDS011;41157;53.560;10.098;2022-10-16T15:03:50;4.72;;;1.95;;
55292;SDS011;41157;53.560;10.098;2022-10-16T15:06:18;6.93;;;1.73;;
55292;SDS011;41157;53.560;10.098;2022-10-16T15:08:44;5.00;;;1.60;;
55292;SDS011;41157;53.560;10.098;2022-10-16T15:11:12;5.10;;;2.03;;
55292;SDS011;41157;53.560;10.098;2022-10-16T15:13:39;4.97;;;1.88;;
55292;SDS011;41157;53.560;10.098;2022-10-16T15:16:07;4.78;;;1.63;;
55292;SDS011;41157;53.560;10.098;2022-10-16T15:18:34;5.45;;;1.77;;
55292;SDS011;41157;53.560;10.098;2022-10-16T15:21:00;4.72;;;1.95;;
55292;SDS011;41157;53.560;10.098;2022-10-16T15:23:26;5.50;;;1.88;;
55292;SDS011;41157;53.560;10.098;2022-10-16T15:25:53;5.88;;;1.77;;
55292;SDS011;41157;53.560;10.098;2022-10-16T15:28:20;6.68;;;2.10;;
55292;SDS011;41157;53.560;10.098;2022-10-16T15:30:48;7.03;;;1.80;;
55292;SDS011;41157;53.560;10.098;2022-10-16T15:33:15;6.20;;;1.88;;
55292;SDS011;41157;53.560;10.098;2022-10-16T15:35:42;6.72;;;2.10;;
55292;SDS011;41157;53.560;10.098;2022-10-16T15:38:12;4.82;;;1.70;;
55292;SDS011;41157;53.560;10.098;2022-10-16T15:40:38;7.88;;;1.98;;
55292;SDS011;41157;53.560;10.098;2022-10-16T15:43:04;6.80;;;1.90;;
55292;SDS011;41157;53.560;10.098;2022-10-16T15:45:31;8.25;;;2.50;;
55292;SDS011;41157;53.560;10.098;2022-10-16T15:47:57;4.85;;;1.75;;
55292;SDS011;41157;53.560;10.098;2022-10-16T15:50:23;6.50;;;1.73;;
55292;SDS011;41157;53.560;10.098;2022-10-16T15:52:49;9.15;;;2.03;;
55292;SDS011;41157;53.560;10.098;2022-10-16T15:55:16;5.85;;;1.80;;
55292;SDS011;41157;53.560;10.098;2022-10-16T15:57:43;9.40;;;2.30;;
55292;SDS011;41157;53.560;10.098;2022-10-16T16:00:11;8.75;;;1.75;;
55292;SDS011;41157;53.560;10.098;2022-10-16T16:02:37;8.30;;;1.95;;
55292;SDS011;41157;53.560;10.098;2022-10-16T16:05:03;4.25;;;1.90;;
55292;SDS011;41157;53.560;10.098;2022-10-16T16:07:38;8.98;;;2.30;;
55292;SDS011;41157;53.560;10.098;2022-10-16T16:10:05;7.13;;;1.85;;
55292;SDS011;41157;53.560;10.098;2022-10-16T16:12:32;10.27;;;2.13;;
55292;SDS011;41157;53.560;10.098;2022-10-16T16:14:58;5.85;;;1.67;;
55292;SDS011;41157;53.560;10.098;2022-10-16T16:17:24;7.75;;;2.00;;
55292;SDS011;41157;53.560;10.098;2022-10-16T16:19:50;5.95;;;2.08;;